sensor_id;sensor_type;location;lat;lon;timestamp;P1;durP1;ratioP1;P2;durP2;ratioP2
71423;SDS011;59240;51.370;-0.486;2023-02-07T00:07:33;30.50;;;8.43;;
71423;SDS011;59240;51.370;-0.486;2023-02-07T00:10:46;32.50;;;10.13;;
71423;SDS011;59240;51.370;-0.486;2023-02-07T00:13:33;27.58;;;9.10;;
71423;SDS011;59240;51.370;-0.486;2023-02-07T00:29:35;34.00;;;10.50;;
71423;SDS011;59240;51.370;-0.486;2023-02-07T00:35:44;36.53;;;9.85;;
71423;SDS011;59240;51.370;-0.486;2023-02-07T00:38:44;34.78;;;11.15;;
71423;SDS011;59240;51.370;-0.486;2023-02-07T00:41:36;30.92;;;10.25;;
71423;SDS011;59240;51.370;-0.486;2023-02-07T00:44:18;34.03;;;11.63;;
71423;SDS011;59240;51.370;-0.486;2023-02-07T00:47:32;38.67;;;10.57;;
71423;SDS011;59240;51.370;-0.486;2023-02-07T00:50:07;31.50;;;11.13;;
71423;SDS011;59240;51.370;-0.486;2023-02-07T00:53:16;42.28;;;11.93;;
71423;SDS011;59240;51.370;-0.486;2023-02-07T00:58:56;35.07;;;12.40;;
71423;SDS011;59240;51.370;-0.486;2023-02-07T01:02:09;36.97;;;11.95;;
71423;SDS011;59240;51.370;-0.486;2023-02-07T01:04:46;43.47;;;12.63;;
71423;SDS011;59240;51.370;-0.486;2023-02-07T01:10:23;33.80;;;11.73;;
71423;SDS011;59240;51.370;-0.486;2023-02-07T01:13:14;37.77;;;12.97;;
71423;SDS011;59240;51.370;-0.486;2023-02-07T01:16:05;39.30;;;11.93;;
71423;SDS011;59240;51.370;-0.486;2023-02-07T01:19:13;35.92;;;12.20;;
71423;SDS011;59240;51.370;-0.486;2023-02-07T01:21:47;39.97;;;12.57;;
71423;SDS011;59240;51.370;-0.486;2023-02-07T01:24:30;41.05;;;11.93;;
71423;SDS011;59240;51.370;-0.486;2023-02-07T01:27:08;35.70;;;12.70;;
71423;SDS011;59240;51.370;-0.486;2023-02-07T01:32:41;39.15;;;12.98;;
71423;SDS011;59240;51.370;-0.486;2023-02-07T01:35:08;40.67;;;13.60;;
71423;SDS011;59240;51.370;-0.486;2023-02-07T01:38:03;34.28;;;11.57;;
71423;SDS011;59240;51.370;-0.486;2023-02-07T01:40:30;36.00;;;11.90;;
71423;SDS011;59240;51.370;-0.486;2023-02-07T01:42:57;34.65;;;12.75;;
71423;SDS011;59240;51.370;-0.486;2023-02-07T01:45:34;36.05;;;12.82;;
71423;SDS011;59240;51.370;-0.486;2023-02-07T01:48:07;36.03;;;11.70;;
71423;SDS011;59240;51.370;-0.486;2023-02-07T01:50:39;36.60;;;11.85;;
71423;SDS011;59240;51.370;-0.486;2023-02-07T01:53:08;34.93;;;11.60;;
71423;SDS011;59240;51.370;-0.486;2023-02-07T01:55:41;37.42;;;12.73;;
71423;SDS011;59240;51.370;-0.486;2023-02-07T01:58:10;38.22;;;12.60;;
71423;SDS011;59240;51.370;-0.486;2023-02-07T02:00:38;37.28;;;12.63;;
71423;SDS011;59240;51.370;-0.486;2023-02-07T02:03:08;40.03;;;12.63;;
71423;SDS011;59240;51.370;-0.486;2023-02-07T02:05:35;40.73;;;12.03;;
71423;SDS011;59240;51.370;-0.486;2023-02-07T02:08:05;40.05;;;12.57;;
71423;SDS011;59240;51.370;-0.486;2023-02-07T02:13:44;36.13;;;11.35;;
71423;SDS011;59240;51.370;-0.486;2023-02-07T02:19:21;37.03;;;10.43;;
71423;SDS011;59240;51.370;-0.486;2023-02-07T02:38:48;37.55;;;10.90;;
71423;SDS011;59240;51.370;-0.486;2023-02-07T02:41:25;32.75;;;10.88;;
71423;SDS011;59240;51.370;-0.486;2023-02-07T02:44:05;30.23;;;9.55;;
71423;SDS011;59240;51.370;-0.486;2023-02-07T02:46:37;32.97;;;12.23;;
71423;SDS011;59240;51.370;-0.486;2023-02-07T02:49:14;32.72;;;11.18;;
71423;SDS011;59240;51.370;-0.486;2023-02-07T02:51:48;31.65;;;10.40;;
71423;SDS011;59240;51.370;-0.486;2023-02-07T02:54:32;32.25;;;11.55;;
71423;SDS011;59240;51.370;-0.486;2023-02-07T03:19:06;31.80;;;10.07;;
71423;SDS011;59240;51.370;-0.486;2023-02-07T03:21:49;30.50;;;10.50;;
71423;SDS011;59240;51.370;-0.486;2023-02-07T03:24:23;32.08;;;10.15;;
71423;SDS011;59240;51.370;-0.486;2023-02-07T03:27:04;30.43;;;9.63;;
71423;SDS011;59240;51.370;-0.486;2023-02-07T03:29:36;32.45;;;10.10;;
71423;SDS011;59240;51.370;-0.486;2023-02-07T03:32:06;32.83;;;10.55;;
71423;SDS011;59240;51.370;-0.486;2023-02-07T03:37:28;27.50;;;9.07;;
71423;SDS011;59240;51.370;-0.486;2023-02-07T03:39:55;30.17;;;9.77;;
71423;SDS011;59240;51.370;-0.486;2023-02-07T03:42:27;23.95;;;8.77;;
71423;SDS011;59240;51.370;-0.486;2023-02-07T03:44:57;28.90;;;9.02;;
71423;SDS011;59240;51.370;-0.486;2023-02-07T03:47:27;29.45;;;9.73;;
71423;SDS011;59240;51.370;-0.486;2023-02-07T03:49:53;33.45;;;9.88;;
71423;SDS011;59240;51.370;-0.486;2023-02-07T03:52:20;26.53;;;9.53;;
71423;SDS011;59240;51.370;-0.486;2023-02-07T03:54:49;34.15;;;10.25;;
71423;SDS011;59240;51.370;-0.486;2023-02-07T03:57:19;31.83;;;10.30;;
71423;SDS011;59240;51.370;-0.486;2023-02-07T03:59:45;26.88;;;10.75;;
71423;SDS011;59240;51.370;-0.486;2023-02-07T04:02:12;34.15;;;9.27;;
71423;SDS011;59240;51.370;-0.486;2023-02-07T04:04:39;31.90;;;9.77;;
71423;SDS011;59240;51.370;-0.486;2023-02-07T04:07:06;34.08;;;9.77;;
71423;SDS011;59240;51.370;-0.486;2023-02-07T04:09:33;32.05;;;9.70;;
71423;SDS011;59240;51.370;-0.486;2023-02-07T04:11:59;26.60;;;9.10;;
71423;SDS011;59240;51.370;-0.486;2023-02-07T04:14:26;27.92;;;10.77;;
71423;SDS011;59240;51.370;-0.486;2023-02-07T04:16:55;36.20;;;9.07;;
71423;SDS011;59240;51.370;-0.486;2023-02-07T04:19:22;30.55;;;9.57;;
71423;SDS011;59240;51.370;-0.486;2023-02-07T04:21:52;32.15;;;9.65;;
71423;SDS011;59240;51.370;-0.486;2023-02-07T04:24:18;32.88;;;10.50;;
71423;SDS011;59240;51.370;-0.486;2023-02-07T04:26:45;32.30;;;10.55;;
71423;SDS011;59240;51.370;-0.486;2023-02-07T04:29:12;36.00;;;11.40;;
71423;SDS011;59240;51.370;-0.486;2023-02-07T04:31:39;29.58;;;10.20;;
71423;SDS011;59240;51.370;-0.486;2023-02-07T04:34:08;30.58;;;9.73;;
71423;SDS011;59240;51.370;-0.486;2023-02-07T04:36:35;29.23;;;9.52;;
71423;SDS011;59240;51.370;-0.486;2023-02-07T04:39:01;35.70;;;10.25;;
71423;SDS011;59240;51.370;-0.486;2023-02-07T04:41:28;38.03;;;11.17;;
71423;SDS011;59240;51.370;-0.486;2023-02-07T04:43:55;32.83;;;10.63;;
71423;SDS011;59240;51.370;-0.486;2023-02-07T04:46:22;31.05;;;9.13;;
71423;SDS011;59240;51.370;-0.486;2023-02-07T04:49:00;34.67;;;10.23;;
71423;SDS011;59240;51.370;-0.486;2023-02-07T04:51:27;26.58;;;9.32;;
71423;SDS011;59240;51.370;-0.486;2023-02-07T04:53:53;26.00;;;9.97;;
71423;SDS011;59240;51.370;-0.486;2023-02-07T04:56:20;31.52;;;10.35;;
71423;SDS011;59240;51.370;-0.486;2023-02-07T04:58:47;24.88;;;8.88;;
71423;SDS011;59240;51.370;-0.486;2023-02-07T05:01:13;27.73;;;9.27;;
71423;SDS011;59240;51.370;-0.486;2023-02-07T05:03:40;29.45;;;8.90;;
71423;SDS011;59240;51.370;-0.486;2023-02-07T05:06:07;33.87;;;10.33;;
71423;SDS011;59240;51.370;-0.486;2023-02-07T05:08:34;29.35;;;9.57;;
71423;SDS011;59240;51.370;-0.486;2023-02-07T05:11:02;28.38;;;9.80;;
71423;SDS011;59240;51.370;-0.486;2023-02-07T05:13:29;29.15;;;8.77;;
71423;SDS011;59240;51.370;-0.486;2023-02-07T05:15:56;25.38;;;8.23;;
71423;SDS011;59240;51.370;-0.486;2023-02-07T05:18:23;28.87;;;10.07;;
71423;SDS011;59240;51.370;-0.486;2023-02-07T05:20:51;24.42;;;6.78;;
71423;SDS011;59240;51.370;-0.486;2023-02-07T05:23:18;31.23;;;8.65;;
71423;SDS011;59240;51.370;-0.486;2023-02-07T05:25:46;32.67;;;8.95;;
71423;SDS011;59240;51.370;-0.486;2023-02-07T05:28:14;26.42;;;9.23;;
71423;SDS011;59240;51.370;-0.486;2023-02-07T05:30:41;36.97;;;9.23;;
71423;SDS011;59240;51.370;-0.486;2023-02-07T05:33:09;27.98;;;8.13;;
71423;SDS011;59240;51.370;-0.486;2023-02-07T05:35:40;34.25;;;8.95;;
71423;SDS011;59240;51.370;-0.486;2023-02-07T05:38:10;23.05;;;9.50;;
71423;SDS011;59240;51.370;-0.486;2023-02-07T05:40:39;44.10;;;10.85;;
71423;SDS011;59240;51.370;-0.486;2023-02-07T05:43:10;44.90;;;10.60;;
71423;SDS011;59240;51.370;-0.486;2023-02-07T05:45:37;39.97;;;10.48;;
71423;SDS011;59240;51.370;-0.486;2023-02-07T05:48:05;56.40;;;11.60;;
71423;SDS011;59240;51.370;-0.486;2023-02-07T05:50:32;55.03;;;12.10;;
71423;SDS011;59240;51.370;-0.486;2023-02-07T05:52:59;60.92;;;12.52;;
71423;SDS011;59240;51.370;-0.486;2023-02-07T05:55:26;75.43;;;11.60;;
71423;SDS011;59240;51.370;-0.486;2023-02-07T05:57:53;74.50;;;12.25;;
71423;SDS011;59240;51.370;-0.486;2023-02-07T06:00:20;58.65;;;11.73;;
71423;SDS011;59240;51.370;-0.486;2023-02-07T06:02:54;78.55;;;14.05;;
71423;SDS011;59240;51.370;-0.486;2023-02-07T06:05:32;75.82;;;12.70;;
71423;SDS011;59240;51.370;-0.486;2023-02-07T06:08:15;67.03;;;13.17;;
71423;SDS011;59240;51.370;-0.486;2023-02-07T06:10:54;64.60;;;12.75;;
71423;SDS011;59240;51.370;-0.486;2023-02-07T06:13:21;66.85;;;13.60;;
71423;SDS011;59240;51.370;-0.486;2023-02-07T06:15:56;59.50;;;12.77;;
71423;SDS011;59240;51.370;-0.486;2023-02-07T06:18:25;86.82;;;14.13;;
71423;SDS011;59240;51.370;-0.486;2023-02-07T06:20:59;85.20;;;13.23;;
71423;SDS011;59240;51.370;-0.486;2023-02-07T06:23:37;77.63;;;13.48;;
71423;SDS011;59240;51.370;-0.486;2023-02-07T06:26:37;109.97;;;13.80;;
71423;SDS011;59240;51.370;-0.486;2023-02-07T06:30:17;85.85;;;12.05;;
71423;SDS011;59240;51.370;-0.486;2023-02-07T06:46:17;57.67;;;9.45;;
71423;SDS011;59240;51.370;-0.486;2023-02-07T06:53:55;66.93;;;9.65;;
71423;SDS011;59240;51.370;-0.486;2023-02-07T08:44:08;42.83;;;7.95;;
71423;SDS011;59240;51.370;-0.486;2023-02-07T08:46:43;62.47;;;9.25;;
71423;SDS011;59240;51.370;-0.486;2023-02-07T08:49:25;47.00;;;8.73;;
71423;SDS011;59240;51.370;-0.486;2023-02-07T08:51:59;76.25;;;9.63;;
71423;SDS011;59240;51.370;-0.486;2023-02-07T08:54:28;51.53;;;8.73;;
71423;SDS011;59240;51.370;-0.486;2023-02-07T08:56:55;37.30;;;7.80;;
71423;SDS011;59240;51.370;-0.486;2023-02-07T08:59:24;61.03;;;8.63;;
71423;SDS011;59240;51.370;-0.486;2023-02-07T09:01:51;46.47;;;9.00;;
71423;SDS011;59240;51.370;-0.486;2023-02-07T09:04:17;38.80;;;8.68;;
71423;SDS011;59240;51.370;-0.486;2023-02-07T09:06:46;44.83;;;7.93;;
71423;SDS011;59240;51.370;-0.486;2023-02-07T09:09:13;44.40;;;9.30;;
71423;SDS011;59240;51.370;-0.486;2023-02-07T09:11:40;50.65;;;8.77;;
71423;SDS011;59240;51.370;-0.486;2023-02-07T09:14:12;44.47;;;7.78;;
71423;SDS011;59240;51.370;-0.486;2023-02-07T09:16:42;36.33;;;6.97;;
71423;SDS011;59240;51.370;-0.486;2023-02-07T09:19:09;54.57;;;7.50;;
71423;SDS011;59240;51.370;-0.486;2023-02-07T09:21:35;48.17;;;7.70;;
71423;SDS011;59240;51.370;-0.486;2023-02-07T09:24:23;39.70;;;11.98;;
71423;SDS011;59240;51.370;-0.486;2023-02-07T09:26:56;39.53;;;9.80;;
71423;SDS011;59240;51.370;-0.486;2023-02-07T09:29:36;35.35;;;8.00;;
71423;SDS011;59240;51.370;-0.486;2023-02-07T09:32:29;47.83;;;7.83;;
71423;SDS011;59240;51.370;-0.486;2023-02-07T09:35:40;73.25;;;22.00;;
71423;SDS011;59240;51.370;-0.486;2023-02-07T09:38:53;189.63;;;69.13;;
71423;SDS011;59240;51.370;-0.486;2023-02-07T09:48:09;29.83;;;7.60;;
71423;SDS011;59240;51.370;-0.486;2023-02-07T09:51:43;31.15;;;8.55;;
71423;SDS011;59240;51.370;-0.486;2023-02-07T10:09:37;31.58;;;8.18;;
71423;SDS011;59240;51.370;-0.486;2023-02-07T11:03:22;234.60;;;55.28;;
71423;SDS011;59240;51.370;-0.486;2023-02-07T11:13:43;354.53;;;64.77;;
71423;SDS011;59240;51.370;-0.486;2023-02-07T11:16:48;308.10;;;63.00;;
71423;SDS011;59240;51.370;-0.486;2023-02-07T11:28:11;284.52;;;59.53;;
71423;SDS011;59240;51.370;-0.486;2023-02-07T11:55:00;180.63;;;47.45;;
71423;SDS011;59240;51.370;-0.486;2023-02-07T11:59:09;174.65;;;47.58;;
71423;SDS011;59240;51.370;-0.486;2023-02-07T12:03:02;152.05;;;42.85;;
71423;SDS011;59240;51.370;-0.486;2023-02-07T12:05:53;142.00;;;38.25;;
71423;SDS011;59240;51.370;-0.486;2023-02-07T12:39:18;86.97;;;29.23;;
71423;SDS011;59240;51.370;-0.486;2023-02-07T13:31:06;70.78;;;30.13;;
71423;SDS011;59240;51.370;-0.486;2023-02-07T13:51:40;62.72;;;25.63;;
71423;SDS011;59240;51.370;-0.486;2023-02-07T14:16:41;51.73;;;22.23;;
71423;SDS011;59240;51.370;-0.486;2023-02-07T14:20:44;47.40;;;18.38;;
71423;SDS011;59240;51.370;-0.486;2023-02-07T14:43:52;28.98;;;11.77;;
71423;SDS011;59240;51.370;-0.486;2023-02-07T14:46:46;27.75;;;10.63;;
71423;SDS011;59240;51.370;-0.486;2023-02-07T14:49:48;29.40;;;12.80;;
71423;SDS011;59240;51.370;-0.486;2023-02-07T15:07:31;20.35;;;6.25;;
71423;SDS011;59240;51.370;-0.486;2023-02-07T15:10:39;22.42;;;6.22;;
71423;SDS011;59240;51.370;-0.486;2023-02-07T15:17:41;20.77;;;5.53;;
71423;SDS011;59240;51.370;-0.486;2023-02-07T15:37:48;17.92;;;5.15;;
71423;SDS011;59240;51.370;-0.486;2023-02-07T15:54:11;20.53;;;5.53;;
71423;SDS011;59240;51.370;-0.486;2023-02-07T16:01:27;16.40;;;5.03;;
71423;SDS011;59240;51.370;-0.486;2023-02-07T16:13:08;30.00;;;10.83;;
71423;SDS011;59240;51.370;-0.486;2023-02-07T16:25:29;30.00;;;10.25;;
71423;SDS011;59240;51.370;-0.486;2023-02-07T16:32:30;34.53;;;10.70;;
71423;SDS011;59240;51.370;-0.486;2023-02-07T16:39:57;26.02;;;10.90;;
71423;SDS011;59240;51.370;-0.486;2023-02-07T16:42:44;26.88;;;10.70;;
71423;SDS011;59240;51.370;-0.486;2023-02-07T16:45:24;25.40;;;10.05;;
71423;SDS011;59240;51.370;-0.486;2023-02-07T16:52:55;22.83;;;9.60;;
71423;SDS011;59240;51.370;-0.486;2023-02-07T16:57:03;27.30;;;10.48;;
71423;SDS011;59240;51.370;-0.486;2023-02-07T17:03:51;24.48;;;9.98;;
71423;SDS011;59240;51.370;-0.486;2023-02-07T17:08:18;27.23;;;9.67;;
71423;SDS011;59240;51.370;-0.486;2023-02-07T17:15:08;26.25;;;10.05;;
71423;SDS011;59240;51.370;-0.486;2023-02-07T17:30:39;31.23;;;10.75;;
71423;SDS011;59240;51.370;-0.486;2023-02-07T18:15:38;41.78;;;15.80;;
71423;SDS011;59240;51.370;-0.486;2023-02-07T18:22:38;37.95;;;13.55;;
71423;SDS011;59240;51.370;-0.486;2023-02-07T18:25:09;34.33;;;14.70;;
71423;SDS011;59240;51.370;-0.486;2023-02-07T18:27:59;39.63;;;15.00;;
71423;SDS011;59240;51.370;-0.486;2023-02-07T18:35:13;39.22;;;15.95;;
71423;SDS011;59240;51.370;-0.486;2023-02-07T18:38:17;44.35;;;15.98;;
71423;SDS011;59240;51.370;-0.486;2023-02-07T18:40:44;38.83;;;16.27;;
71423;SDS011;59240;51.370;-0.486;2023-02-07T18:43:17;36.20;;;15.60;;
71423;SDS011;59240;51.370;-0.486;2023-02-07T18:45:46;38.92;;;14.93;;
71423;SDS011;59240;51.370;-0.486;2023-02-07T18:48:16;37.60;;;15.23;;
71423;SDS011;59240;51.370;-0.486;2023-02-07T18:50:45;38.15;;;16.00;;
71423;SDS011;59240;51.370;-0.486;2023-02-07T18:57:10;40.47;;;16.83;;
71423;SDS011;59240;51.370;-0.486;2023-02-07T19:02:51;44.95;;;19.15;;
71423;SDS011;59240;51.370;-0.486;2023-02-07T19:06:34;50.22;;;20.40;;
71423;SDS011;59240;51.370;-0.486;2023-02-07T19:09:03;50.90;;;20.00;;
71423;SDS011;59240;51.370;-0.486;2023-02-07T19:11:38;51.27;;;21.30;;
71423;SDS011;59240;51.370;-0.486;2023-02-07T19:14:13;47.80;;;20.33;;
71423;SDS011;59240;51.370;-0.486;2023-02-07T19:16:47;55.10;;;21.23;;
71423;SDS011;59240;51.370;-0.486;2023-02-07T19:19:45;46.58;;;17.02;;
71423;SDS011;59240;51.370;-0.486;2023-02-07T19:22:17;47.47;;;19.50;;
71423;SDS011;59240;51.370;-0.486;2023-02-07T19:25:01;47.63;;;18.67;;
71423;SDS011;59240;51.370;-0.486;2023-02-07T19:27:50;46.17;;;17.70;;
71423;SDS011;59240;51.370;-0.486;2023-02-07T19:30:31;37.00;;;17.85;;
71423;SDS011;59240;51.370;-0.486;2023-02-07T19:33:05;41.53;;;15.68;;
71423;SDS011;59240;51.370;-0.486;2023-02-07T19:35:43;46.60;;;16.67;;
71423;SDS011;59240;51.370;-0.486;2023-02-07T19:38:41;33.77;;;14.13;;
71423;SDS011;59240;51.370;-0.486;2023-02-07T19:41:43;40.00;;;15.30;;
71423;SDS011;59240;51.370;-0.486;2023-02-07T19:44:24;38.22;;;14.88;;
71423;SDS011;59240;51.370;-0.486;2023-02-07T19:46:56;37.55;;;15.15;;
71423;SDS011;59240;51.370;-0.486;2023-02-07T19:49:23;45.58;;;15.52;;
71423;SDS011;59240;51.370;-0.486;2023-02-07T19:51:53;46.50;;;17.50;;
71423;SDS011;59240;51.370;-0.486;2023-02-07T19:54:32;66.22;;;25.38;;
71423;SDS011;59240;51.370;-0.486;2023-02-07T19:57:13;65.40;;;28.23;;
71423;SDS011;59240;51.370;-0.486;2023-02-07T19:59:56;65.60;;;24.88;;
71423;SDS011;59240;51.370;-0.486;2023-02-07T20:06:08;51.87;;;18.90;;
71423;SDS011;59240;51.370;-0.486;2023-02-07T20:09:40;38.33;;;16.83;;
71423;SDS011;59240;51.370;-0.486;2023-02-07T20:16:21;40.20;;;15.90;;
71423;SDS011;59240;51.370;-0.486;2023-02-07T20:19:40;41.75;;;14.15;;
71423;SDS011;59240;51.370;-0.486;2023-02-07T20:25:45;38.75;;;14.90;;
71423;SDS011;59240;51.370;-0.486;2023-02-07T20:28:42;76.38;;;29.42;;
71423;SDS011;59240;51.370;-0.486;2023-02-07T20:31:45;84.93;;;31.73;;
71423;SDS011;59240;51.370;-0.486;2023-02-07T20:34:37;51.35;;;21.60;;
71423;SDS011;59240;51.370;-0.486;2023-02-07T20:44:25;72.45;;;26.83;;
71423;SDS011;59240;51.370;-0.486;2023-02-07T20:48:20;83.97;;;30.08;;
71423;SDS011;59240;51.370;-0.486;2023-02-07T20:51:20;60.97;;;24.00;;
71423;SDS011;59240;51.370;-0.486;2023-02-07T20:54:54;49.13;;;20.90;;
71423;SDS011;59240;51.370;-0.486;2023-02-07T20:57:21;46.58;;;18.58;;
71423;SDS011;59240;51.370;-0.486;2023-02-07T20:59:50;51.40;;;19.73;;
71423;SDS011;59240;51.370;-0.486;2023-02-07T21:11:59;49.67;;;18.50;;
71423;SDS011;59240;51.370;-0.486;2023-02-07T21:14:33;50.28;;;17.58;;
71423;SDS011;59240;51.370;-0.486;2023-02-07T21:17:15;62.25;;;24.15;;
71423;SDS011;59240;51.370;-0.486;2023-02-07T21:19:43;74.25;;;26.38;;
71423;SDS011;59240;51.370;-0.486;2023-02-07T21:22:10;67.90;;;26.20;;
71423;SDS011;59240;51.370;-0.486;2023-02-07T21:25:32;63.90;;;24.20;;
71423;SDS011;59240;51.370;-0.486;2023-02-07T21:28:08;54.72;;;21.23;;
71423;SDS011;59240;51.370;-0.486;2023-02-07T21:34:13;65.20;;;24.23;;
71423;SDS011;59240;51.370;-0.486;2023-02-07T21:37:02;57.58;;;21.63;;
71423;SDS011;59240;51.370;-0.486;2023-02-07T21:39:38;53.27;;;21.53;;
71423;SDS011;59240;51.370;-0.486;2023-02-07T21:42:12;57.08;;;22.13;;
71423;SDS011;59240;51.370;-0.486;2023-02-07T21:44:43;54.47;;;21.33;;
71423;SDS011;59240;51.370;-0.486;2023-02-07T21:47:17;54.00;;;21.13;;
71423;SDS011;59240;51.370;-0.486;2023-02-07T21:50:24;46.60;;;19.10;;
71423;SDS011;59240;51.370;-0.486;2023-02-07T21:53:28;61.57;;;20.67;;
71423;SDS011;59240;51.370;-0.486;2023-02-07T21:56:29;45.88;;;19.83;;
71423;SDS011;59240;51.370;-0.486;2023-02-07T21:59:33;45.22;;;19.15;;
71423;SDS011;59240;51.370;-0.486;2023-02-07T22:03:28;45.22;;;18.38;;
71423;SDS011;59240;51.370;-0.486;2023-02-07T22:06:34;55.08;;;19.55;;
71423;SDS011;59240;51.370;-0.486;2023-02-07T22:09:49;52.93;;;18.60;;
71423;SDS011;59240;51.370;-0.486;2023-02-07T22:13:00;39.33;;;15.07;;
71423;SDS011;59240;51.370;-0.486;2023-02-07T22:19:23;47.60;;;18.08;;
71423;SDS011;59240;51.370;-0.486;2023-02-07T22:22:20;44.88;;;18.13;;
71423;SDS011;59240;51.370;-0.486;2023-02-07T22:32:35;53.78;;;18.02;;
71423;SDS011;59240;51.370;-0.486;2023-02-07T22:39:56;47.33;;;17.25;;
71423;SDS011;59240;51.370;-0.486;2023-02-07T22:43:15;42.80;;;17.07;;
71423;SDS011;59240;51.370;-0.486;2023-02-07T22:46:16;42.47;;;15.95;;
71423;SDS011;59240;51.370;-0.486;2023-02-07T22:53:09;47.80;;;16.55;;
71423;SDS011;59240;51.370;-0.486;2023-02-07T23:01:01;37.30;;;15.10;;
71423;SDS011;59240;51.370;-0.486;2023-02-07T23:03:33;37.60;;;15.07;;
71423;SDS011;59240;51.370;-0.486;2023-02-07T23:06:14;44.33;;;16.85;;
71423;SDS011;59240;51.370;-0.486;2023-02-07T23:08:53;48.97;;;17.00;;
71423;SDS011;59240;51.370;-0.486;2023-02-07T23:11:28;46.00;;;17.52;;
71423;SDS011;59240;51.370;-0.486;2023-02-07T23:14:13;43.63;;;17.43;;
71423;SDS011;59240;51.370;-0.486;2023-02-07T23:16:42;41.33;;;16.85;;
71423;SDS011;59240;51.370;-0.486;2023-02-07T23:19:11;45.50;;;16.90;;
71423;SDS011;59240;51.370;-0.486;2023-02-07T23:21:42;40.58;;;15.73;;
71423;SDS011;59240;51.370;-0.486;2023-02-07T23:24:09;46.50;;;17.45;;
71423;SDS011;59240;51.370;-0.486;2023-02-07T23:26:36;47.00;;;16.60;;
71423;SDS011;59240;51.370;-0.486;2023-02-07T23:29:03;44.45;;;16.40;;
71423;SDS011;59240;51.370;-0.486;2023-02-07T23:31:30;51.00;;;18.42;;
71423;SDS011;59240;51.370;-0.486;2023-02-07T23:33:58;50.08;;;17.58;;
71423;SDS011;59240;51.370;-0.486;2023-02-07T23:36:25;41.70;;;15.45;;
71423;SDS011;59240;51.370;-0.486;2023-02-07T23:38:52;49.67;;;16.93;;
71423;SDS011;59240;51.370;-0.486;2023-02-07T23:41:22;44.50;;;16.45;;
71423;SDS011;59240;51.370;-0.486;2023-02-07T23:43:49;47.35;;;17.33;;
71423;SDS011;59240;51.370;-0.486;2023-02-07T23:46:16;40.35;;;16.60;;
71423;SDS011;59240;51.370;-0.486;2023-02-07T23:48:43;46.83;;;18.25;;
71423;SDS011;59240;51.370;-0.486;2023-02-07T23:51:14;54.60;;;22.87;;
71423;SDS011;59240;51.370;-0.486;2023-02-07T23:53:41;43.38;;;16.98;;
71423;SDS011;59240;51.370;-0.486;2023-02-07T23:56:09;42.28;;;17.75;;
71423;SDS011;59240;51.370;-0.486;2023-02-07T23:58:40;43.85;;;17.33;;
